createdAt,value
2019-03-24T00:01:17.510Z,88.09
2019-03-24T00:06:23.186Z,87.72
2019-03-24T00:11:29.488Z,87.46
2019-03-24T00:16:36.550Z,87.59
2019-03-24T00:21:42.324Z,88.28
2019-03-24T00:26:47.998Z,88.98
2019-03-24T00:31:53.695Z,88.99
2019-03-24T00:37:00.564Z,88.79
2019-03-24T00:42:06.732Z,88.50
2019-03-24T00:47:12.842Z,88.24
2019-03-24T00:52:19.367Z,88.20
2019-03-24T00:57:24.965Z,87.93
2019-03-24T01:02:31.290Z,88.09
2019-03-24T01:07:37.585Z,88.14
2019-03-24T01:12:43.724Z,88.40
2019-03-24T01:17:49.423Z,87.62
2019-03-24T01:22:55.312Z,87.44
2019-03-24T01:28:00.994Z,87.70
2019-03-24T01:33:06.786Z,87.73
2019-03-24T01:38:12.466Z,88.22
2019-03-24T01:43:18.580Z,89.12
2019-03-24T01:48:24.504Z,89.97
2019-03-24T01:53:30.371Z,90.16
2019-03-24T01:58:37.561Z,89.95
2019-03-24T02:03:44.398Z,90.21
2019-03-24T02:08:50.449Z,90.41
2019-03-24T02:13:56.417Z,90.08
2019-03-24T02:19:03.005Z,90.52
2019-03-24T02:24:09.123Z,90.81
2019-03-24T02:29:14.821Z,90.61
2019-03-24T02:34:20.968Z,91.23
2019-03-24T02:39:26.724Z,91.02
2019-03-24T02:44:32.536Z,91.30
2019-03-24T02:49:38.695Z,91.33
2019-03-24T02:54:44.686Z,91.58
2019-03-24T02:59:50.800Z,91.49
2019-03-24T03:04:56.583Z,91.46
2019-03-24T03:10:03.199Z,91.65
2019-03-24T03:15:11.166Z,91.85
2019-03-24T03:20:17.402Z,91.71
2019-03-24T03:25:23.348Z,91.48
2019-03-24T03:30:29.051Z,90.80
2019-03-24T03:35:34.923Z,90.34
2019-03-24T03:40:40.714Z,89.77
2019-03-24T03:45:46.646Z,89.30
2019-03-24T03:50:52.404Z,88.85
2019-03-24T03:55:58.099Z,88.33
2019-03-24T04:01:05.000Z,87.98
2019-03-24T04:06:10.691Z,87.53
2019-03-24T04:11:16.386Z,87.13
2019-03-24T04:16:22.445Z,87.08
2019-03-24T04:21:28.555Z,86.87
2019-03-24T04:26:34.352Z,86.70
2019-03-24T04:31:40.478Z,86.77
2019-03-24T04:36:46.267Z,86.53
2019-03-24T04:41:52.723Z,86.77
2019-03-24T04:46:59.464Z,86.70
2019-03-24T04:52:05.372Z,86.80
2019-03-24T04:57:11.254Z,86.78
2019-03-24T05:02:17.418Z,86.98
2019-03-24T05:07:23.893Z,87.10
2019-03-24T05:12:29.986Z,87.07
2019-03-24T05:17:37.162Z,87.18
2019-03-24T05:22:43.238Z,87.30
2019-03-24T05:27:49.132Z,87.55
2019-03-24T05:32:55.342Z,87.70
2019-03-24T05:38:01.031Z,87.73
2019-03-24T05:43:06.846Z,88.00
2019-03-24T05:48:12.740Z,87.88
2019-03-24T05:53:18.525Z,87.59
2019-03-24T05:58:24.619Z,87.92
2019-03-24T06:03:30.542Z,87.85
2019-03-24T06:08:37.164Z,88.15
2019-03-24T06:13:44.193Z,88.07
2019-03-24T06:18:50.090Z,88.01
2019-03-24T06:23:55.784Z,87.98
2019-03-24T06:29:01.898Z,88.27
2019-03-24T06:34:08.062Z,87.95
2019-03-24T06:39:14.247Z,87.76
2019-03-24T06:44:20.024Z,88.01
2019-03-24T06:49:25.918Z,87.86
2019-03-24T06:54:31.622Z,87.86
2019-03-24T06:59:38.295Z,87.21
2019-03-24T07:04:44.154Z,87.73
2019-03-24T07:09:52.589Z,87.84
2019-03-24T07:14:58.892Z,88.02
2019-03-24T07:20:05.484Z,87.98
2019-03-24T07:25:11.629Z,87.69
2019-03-24T07:30:17.725Z,88.41
2019-03-24T07:35:23.778Z,89.18
2019-03-24T07:40:29.612Z,88.67
2019-03-24T07:45:35.493Z,88.44
2019-03-24T07:50:41.732Z,87.69
2019-03-24T07:55:48.072Z,87.75
2019-03-24T08:00:54.234Z,87.29
2019-03-24T08:06:00.015Z,87.39
2019-03-24T08:11:08.543Z,87.56
2019-03-24T08:16:14.353Z,87.42
2019-03-24T08:21:20.604Z,87.50
2019-03-24T08:26:26.479Z,87.14
2019-03-24T08:31:32.837Z,86.96
2019-03-24T08:36:39.360Z,87.04
2019-03-24T08:41:45.118Z,86.94
2019-03-24T08:46:51.013Z,86.74
2019-03-24T08:51:56.799Z,86.74
2019-03-24T08:57:02.623Z,86.71
2019-03-24T09:02:08.859Z,86.63
2019-03-24T09:07:15.311Z,86.25
2019-03-24T09:12:21.214Z,86.18
2019-03-24T09:17:27.034Z,86.21
2019-03-24T09:22:32.862Z,86.26
2019-03-24T09:27:38.647Z,86.01
2019-03-24T09:32:44.605Z,86.18
2019-03-24T09:37:50.774Z,86.75
2019-03-24T09:42:56.884Z,86.14
2019-03-24T09:48:02.996Z,86.02
2019-03-24T09:53:08.794Z,85.93
2019-03-24T09:58:14.571Z,84.94
2019-03-24T10:03:20.362Z,84.74
2019-03-24T10:08:27.262Z,84.42
2019-03-24T10:13:33.139Z,84.00
2019-03-24T10:18:38.921Z,83.72
2019-03-24T10:23:44.697Z,83.39
2019-03-24T10:28:50.489Z,83.25
2019-03-24T10:33:56.574Z,83.01
2019-03-24T10:39:05.351Z,82.58
2019-03-24T10:44:11.140Z,82.42
2019-03-24T10:49:24.817Z,81.49
2019-03-24T10:54:25.969Z,81.08
2019-03-24T10:59:31.790Z,80.49
2019-03-24T11:04:37.846Z,80.07
2019-03-24T11:09:45.190Z,80.18
2019-03-24T11:14:51.641Z,79.87
2019-03-24T11:19:58.475Z,79.37
2019-03-24T11:25:05.006Z,78.48
2019-03-24T11:30:12.671Z,78.49
2019-03-24T11:35:18.491Z,77.67
2019-03-24T11:40:24.485Z,77.39
2019-03-24T11:45:30.458Z,77.39
2019-03-24T11:50:36.362Z,77.28
2019-03-24T11:55:42.503Z,77.33
2019-03-24T12:00:49.103Z,77.49
2019-03-24T12:05:54.985Z,77.89
2019-03-24T12:11:00.838Z,77.32
2019-03-24T12:16:07.913Z,77.84
2019-03-24T12:21:13.804Z,77.60
2019-03-24T12:26:19.590Z,78.58
2019-03-24T12:31:25.468Z,78.25
2019-03-24T12:36:31.638Z,77.63
2019-03-24T12:41:37.435Z,77.93
2019-03-24T12:46:43.211Z,78.62
2019-03-24T12:51:49.982Z,78.94
2019-03-24T12:56:55.780Z,79.32
2019-03-24T13:02:02.410Z,78.92
2019-03-24T13:07:09.608Z,78.23
2019-03-24T13:12:15.393Z,78.56
2019-03-24T13:17:21.537Z,79.03
2019-03-24T13:22:27.650Z,77.70
2019-03-24T13:27:33.815Z,77.11
2019-03-24T13:32:40.867Z,77.02
2019-03-24T13:37:46.649Z,76.71
2019-03-24T13:42:52.877Z,78.02
2019-03-24T13:47:58.783Z,77.75
2019-03-24T13:53:04.962Z,78.73
2019-03-24T13:58:12.253Z,79.49
2019-03-24T14:03:18.139Z,79.76
2019-03-24T14:08:24.325Z,79.91
2019-03-24T14:13:30.117Z,79.30
2019-03-24T14:18:36.395Z,80.00
2019-03-24T14:23:42.515Z,79.43
2019-03-24T14:28:49.118Z,78.80
2019-03-24T14:33:55.321Z,79.10
2019-03-24T14:39:01.117Z,79.27
2019-03-24T14:44:08.582Z,80.18
2019-03-24T14:49:14.375Z,80.72
2019-03-24T14:54:20.486Z,81.30
2019-03-24T14:59:26.558Z,81.68
2019-03-24T15:04:32.442Z,81.27
2019-03-24T15:09:38.332Z,81.21
2019-03-24T15:14:44.128Z,81.40
2019-03-24T15:19:50.251Z,81.72
2019-03-24T15:24:56.263Z,81.65
2019-03-24T15:30:02.417Z,81.94
2019-03-24T15:35:09.622Z,81.43
2019-03-24T15:40:15.534Z,81.24
2019-03-24T15:45:21.742Z,81.25
2019-03-24T15:50:27.764Z,81.28
2019-03-24T15:55:33.458Z,80.82
2019-03-24T16:00:44.304Z,81.27
2019-03-24T16:05:50.189Z,80.89
2019-03-24T16:10:55.997Z,80.73
2019-03-24T16:16:02.884Z,80.96
2019-03-24T16:21:08.951Z,81.19
2019-03-24T16:26:14.746Z,80.64
2019-03-24T16:31:20.599Z,80.62
2019-03-24T16:36:26.524Z,81.47
2019-03-24T16:41:32.309Z,82.18
2019-03-24T16:46:38.103Z,83.01
2019-03-24T16:51:43.912Z,83.53
2019-03-24T16:56:49.944Z,83.18
2019-03-24T17:01:56.376Z,83.48
2019-03-24T17:07:02.144Z,83.40
2019-03-24T17:12:08.261Z,83.68
2019-03-24T17:17:17.119Z,83.73
2019-03-24T17:22:23.675Z,83.84
2019-03-24T17:27:29.869Z,83.47
2019-03-24T17:32:35.654Z,83.23
2019-03-24T17:37:41.813Z,83.18
2019-03-24T17:42:47.719Z,83.09
2019-03-24T17:47:53.436Z,84.09
2019-03-24T17:52:59.130Z,84.78
2019-03-24T17:58:04.978Z,84.82
2019-03-24T18:03:10.668Z,84.95
2019-03-24T18:08:16.457Z,85.61
2019-03-24T18:13:22.506Z,86.05
2019-03-24T18:18:28.274Z,85.78
2019-03-24T18:23:34.397Z,86.11
2019-03-24T18:28:40.113Z,86.11
2019-03-24T18:33:45.740Z,85.52
2019-03-24T18:38:52.678Z,85.71
2019-03-24T18:43:59.097Z,86.55
2019-03-24T18:49:06.034Z,86.49
2019-03-24T18:54:12.537Z,86.14
2019-03-24T18:59:18.602Z,86.58
2019-03-24T19:04:24.406Z,86.71
2019-03-24T19:09:30.105Z,86.77
2019-03-24T19:14:36.231Z,87.04
2019-03-24T19:19:43.391Z,88.03
2019-03-24T19:24:49.088Z,88.67
2019-03-24T19:29:55.177Z,89.23
2019-03-24T19:35:02.087Z,89.33
2019-03-24T19:40:13.705Z,89.90
2019-03-24T19:45:19.577Z,90.67
2019-03-24T19:50:26.765Z,90.88
2019-03-24T19:55:34.661Z,91.33
2019-03-24T20:00:40.812Z,91.00
2019-03-24T20:05:46.521Z,90.95
2019-03-24T20:10:52.631Z,89.99
2019-03-24T20:15:58.554Z,89.60
2019-03-24T20:21:04.731Z,90.32
2019-03-24T20:26:10.734Z,90.50
2019-03-24T20:31:16.898Z,89.73
2019-03-24T20:36:22.757Z,90.00
2019-03-24T20:41:29.385Z,90.51
2019-03-24T20:46:35.849Z,91.18
2019-03-24T20:51:41.699Z,93.21
2019-03-24T20:56:47.706Z,93.13
2019-03-24T21:01:53.411Z,93.74
2019-03-24T21:06:59.115Z,93.83
2019-03-24T21:12:04.985Z,94.42
2019-03-24T21:17:11.049Z,94.17
2019-03-24T21:22:16.820Z,94.22
2019-03-24T21:27:22.903Z,92.94
2019-03-24T21:32:28.775Z,92.78
2019-03-24T21:37:34.517Z,92.58
2019-03-24T21:42:40.346Z,92.33
2019-03-24T21:47:46.739Z,92.49
2019-03-24T21:52:52.481Z,92.46
2019-03-24T21:57:59.601Z,91.99
2019-03-24T22:03:06.492Z,91.80
2019-03-24T22:08:12.959Z,91.72
2019-03-24T22:13:18.650Z,92.07
2019-03-24T22:18:24.791Z,92.69
2019-03-24T22:23:30.554Z,92.99
2019-03-24T22:28:36.339Z,93.27
2019-03-24T22:33:42.093Z,94.66
2019-03-24T22:38:47.892Z,94.71
2019-03-24T22:43:53.613Z,94.75
2019-03-24T22:48:59.318Z,94.70
2019-03-24T22:54:06.101Z,95.43
2019-03-24T22:59:11.807Z,94.93
2019-03-24T23:04:18.165Z,94.86
2019-03-24T23:09:23.864Z,95.09
2019-03-24T23:14:29.558Z,95.09
2019-03-24T23:19:35.256Z,94.67
2019-03-24T23:24:41.286Z,94.28
2019-03-24T23:29:47.070Z,93.65
2019-03-24T23:34:52.948Z,92.91
2019-03-24T23:39:59.341Z,92.31
2019-03-24T23:45:05.368Z,92.42
2019-03-24T23:50:12.419Z,92.21
2019-03-24T23:55:18.119Z,92.18
